createdAt,value
2018-12-02T00:00:13.133Z,3.43
2018-12-02T00:01:13.127Z,3.49
2018-12-02T00:02:13.107Z,3.42
2018-12-02T00:03:13.101Z,3.44
2018-12-02T00:04:13.088Z,3.52
2018-12-02T00:05:13.081Z,3.52
2018-12-02T00:06:13.061Z,3.50
2018-12-02T00:07:13.054Z,3.52
2018-12-02T00:08:13.038Z,3.52
2018-12-02T00:10:54.285Z,3.52
2018-12-02T00:12:15.642Z,3.47
2018-12-02T00:13:47.590Z,3.53
2018-12-02T00:14:47.577Z,3.49
2018-12-02T00:15:47.571Z,3.53
2018-12-02T00:16:47.605Z,3.50
2018-12-02T00:17:47.536Z,3.57
2018-12-02T00:18:47.530Z,3.44
2018-12-02T00:19:47.521Z,3.49
2018-12-02T00:20:47.508Z,3.44
2018-12-02T00:21:47.501Z,3.47
2018-12-02T00:22:47.486Z,3.52
2018-12-02T00:23:47.476Z,3.49
2018-12-02T00:26:15.060Z,3.54
2018-12-02T00:27:15.053Z,3.60
2018-12-02T00:28:15.036Z,3.52
2018-12-02T00:29:34.672Z,3.57
2018-12-02T00:30:46.002Z,3.58
2018-12-02T00:33:14.986Z,3.57
2018-12-02T00:35:42.593Z,3.65
2018-12-02T00:37:01.170Z,3.62
2018-12-02T00:37:42.535Z,3.58
2018-12-02T00:38:42.523Z,3.57
2018-12-02T00:39:42.521Z,3.60
2018-12-02T00:40:42.506Z,3.62
2018-12-02T00:41:42.496Z,3.67
2018-12-02T00:42:42.478Z,3.65
2018-12-02T00:43:42.472Z,3.58
2018-12-02T00:44:42.466Z,3.67
2018-12-02T00:45:42.472Z,3.65
2018-12-02T00:46:42.441Z,3.54
2018-12-02T00:47:42.435Z,3.67
2018-12-02T00:48:42.421Z,3.70
2018-12-02T00:49:42.408Z,3.61
2018-12-02T00:50:42.406Z,3.67
2018-12-02T00:51:42.384Z,3.61
2018-12-02T00:52:42.388Z,3.64
2018-12-02T00:53:42.414Z,3.58
2018-12-02T00:54:42.353Z,3.68
2018-12-02T00:55:42.344Z,3.61
2018-12-02T00:56:42.335Z,3.60
2018-12-02T00:57:42.318Z,3.61
2018-12-02T00:59:01.960Z,3.54
2018-12-02T01:00:24.347Z,3.61
2018-12-02T01:01:24.342Z,3.65
2018-12-02T01:02:24.320Z,3.68
2018-12-02T01:03:24.316Z,3.61
2018-12-02T01:04:24.311Z,3.65
2018-12-02T01:05:24.297Z,3.75
2018-12-02T01:06:24.285Z,3.68
2018-12-02T01:07:24.313Z,3.64
2018-12-02T01:08:24.256Z,3.67
2018-12-02T01:09:24.251Z,3.75
2018-12-02T01:10:24.235Z,3.67
2018-12-02T01:11:24.224Z,3.53
2018-12-02T01:12:24.215Z,3.65
2018-12-02T01:13:24.198Z,3.67
2018-12-02T01:14:24.192Z,3.61
2018-12-02T01:15:24.190Z,3.67
2018-12-02T01:16:24.170Z,3.65
2018-12-02T01:17:24.159Z,3.67
2018-12-02T01:18:24.149Z,3.65
2018-12-02T01:19:24.138Z,3.67
2018-12-02T01:20:24.121Z,3.64
2018-12-02T01:21:24.114Z,3.54
2018-12-02T01:22:24.107Z,3.70
2018-12-02T01:23:24.096Z,3.67
2018-12-02T01:24:24.120Z,3.67
2018-12-02T01:25:24.069Z,3.62
2018-12-02T01:26:24.061Z,3.58
2018-12-02T01:27:24.043Z,3.58
2018-12-02T01:28:24.033Z,3.53
2018-12-02T01:29:24.036Z,3.53
2018-12-02T01:30:24.012Z,3.57
2018-12-02T01:31:24.009Z,3.53
2018-12-02T01:32:23.998Z,3.58
2018-12-02T01:33:23.976Z,3.54
2018-12-02T01:34:23.971Z,3.61
2018-12-02T01:35:23.967Z,3.57
2018-12-02T01:36:23.956Z,3.54
2018-12-02T01:37:23.942Z,3.58
2018-12-02T01:38:23.935Z,3.57
2018-12-02T01:39:23.924Z,3.61
2018-12-02T01:40:23.905Z,3.61
2018-12-02T01:41:23.907Z,3.54
2018-12-02T01:42:23.877Z,3.57
2018-12-02T01:43:23.866Z,3.53
2018-12-02T01:44:23.854Z,3.54
2018-12-02T01:45:23.842Z,3.53
2018-12-02T01:46:23.838Z,3.53
2018-12-02T01:47:23.828Z,3.54
2018-12-02T01:48:23.810Z,3.58
2018-12-02T01:49:23.803Z,3.58
2018-12-02T01:50:23.789Z,3.52
2018-12-02T01:51:23.788Z,3.52
2018-12-02T01:52:23.776Z,3.64
2018-12-02T01:53:23.763Z,3.68
2018-12-02T01:54:23.748Z,3.64
2018-12-02T01:55:23.738Z,3.65
2018-12-02T01:56:23.728Z,3.62
2018-12-02T01:57:23.727Z,3.65
2018-12-02T01:58:23.714Z,3.68
2018-12-02T01:59:23.690Z,3.67
2018-12-02T02:00:23.683Z,3.70
2018-12-02T02:01:23.676Z,3.68
2018-12-02T02:02:23.661Z,3.70
2018-12-02T02:03:23.698Z,3.65
2018-12-02T02:04:23.632Z,3.67
2018-12-02T02:05:23.621Z,3.70
2018-12-02T02:06:23.617Z,3.80
2018-12-02T02:07:23.615Z,3.71
2018-12-02T02:08:23.595Z,3.70
2018-12-02T02:09:23.583Z,3.75
2018-12-02T02:10:23.568Z,3.83
2018-12-02T02:11:23.557Z,3.78
2018-12-02T02:12:23.565Z,3.80
2018-12-02T02:13:23.533Z,3.80
2018-12-02T02:14:23.531Z,3.71
2018-12-02T02:15:23.518Z,3.75
2018-12-02T02:16:23.499Z,3.76
2018-12-02T02:17:23.489Z,3.68
2018-12-02T02:18:23.487Z,3.80
2018-12-02T02:19:23.469Z,3.72
2018-12-02T02:20:23.485Z,3.67
2018-12-02T02:21:23.448Z,3.68
2018-12-02T02:22:23.435Z,3.60
2018-12-02T02:23:23.421Z,3.67
2018-12-02T02:24:23.421Z,3.71
2018-12-02T02:25:23.433Z,3.68
2018-12-02T02:26:23.397Z,3.75
2018-12-02T02:27:23.392Z,3.70
2018-12-02T02:28:23.394Z,3.72
2018-12-02T02:30:50.962Z,3.71
2018-12-02T02:31:50.945Z,3.71
2018-12-02T02:32:50.944Z,3.71
2018-12-02T02:33:50.920Z,3.65
2018-12-02T02:34:50.908Z,3.62
2018-12-02T02:35:50.903Z,3.62
2018-12-02T02:36:50.884Z,3.65
2018-12-02T02:37:50.882Z,3.62
2018-12-02T02:38:50.868Z,3.62
2018-12-02T02:39:50.853Z,3.62
2018-12-02T02:40:50.846Z,3.64
2018-12-02T02:41:50.835Z,3.70
2018-12-02T02:42:50.823Z,3.65
2018-12-02T02:43:50.810Z,3.72
2018-12-02T02:44:50.794Z,3.68
2018-12-02T02:45:50.792Z,3.70
2018-12-02T02:46:50.785Z,3.78
2018-12-02T02:47:50.766Z,3.80
2018-12-02T02:48:50.757Z,3.85
2018-12-02T02:49:50.741Z,3.78
2018-12-02T02:50:50.733Z,3.85
2018-12-02T02:51:50.722Z,3.82
2018-12-02T02:52:50.709Z,3.79
2018-12-02T02:53:50.696Z,3.68
2018-12-02T02:54:50.691Z,3.83
2018-12-02T02:55:50.692Z,3.82
2018-12-02T02:56:50.678Z,3.80
2018-12-02T02:57:50.668Z,3.88
2018-12-02T02:58:50.651Z,3.86
2018-12-02T02:59:50.648Z,3.90
2018-12-02T03:00:50.625Z,3.88
2018-12-02T03:02:11.286Z,3.90
2018-12-02T03:03:33.689Z,3.92
2018-12-02T03:04:33.663Z,3.88
2018-12-02T03:06:15.729Z,3.88
2018-12-02T03:07:15.716Z,3.88
2018-12-02T03:08:15.697Z,3.89
2018-12-02T03:09:15.685Z,3.83
2018-12-02T03:10:15.687Z,3.86
2018-12-02T03:11:15.685Z,3.89
2018-12-02T03:12:15.662Z,3.88
2018-12-02T03:13:15.664Z,3.88
2018-12-02T03:14:15.634Z,3.88
2018-12-02T03:15:15.625Z,3.88
2018-12-02T03:16:15.609Z,3.85
2018-12-02T03:17:15.599Z,3.85
2018-12-02T03:18:15.596Z,3.86
2018-12-02T03:19:15.575Z,3.88
2018-12-02T03:20:15.575Z,3.85
2018-12-02T03:21:15.577Z,3.85
2018-12-02T03:22:15.554Z,3.86
2018-12-02T03:23:15.533Z,3.89
2018-12-02T03:24:15.530Z,3.88
2018-12-02T03:25:34.181Z,3.82
2018-12-02T03:26:57.556Z,3.86
2018-12-02T03:27:57.542Z,3.88
2018-12-02T03:28:57.563Z,3.85
2018-12-02T03:29:57.527Z,3.98
2018-12-02T03:30:57.511Z,3.97
2018-12-02T03:31:57.504Z,3.94
2018-12-02T03:32:57.485Z,3.92
2018-12-02T03:33:57.478Z,3.97
2018-12-02T03:34:57.458Z,3.96
2018-12-02T03:35:57.446Z,3.92
2018-12-02T03:36:57.442Z,3.88
2018-12-02T03:37:57.430Z,4.03
2018-12-02T03:38:57.414Z,3.98
2018-12-02T03:39:57.412Z,3.92
2018-12-02T03:40:57.400Z,3.94
2018-12-02T03:41:57.389Z,4.03
2018-12-02T03:42:57.376Z,3.97
2018-12-02T03:43:57.359Z,4.01
2018-12-02T03:44:57.355Z,4.03
2018-12-02T03:45:57.343Z,4.01
2018-12-02T03:46:57.327Z,4.01
2018-12-02T03:47:57.319Z,3.98
2018-12-02T03:48:57.311Z,4.03
2018-12-02T03:49:57.298Z,3.98
2018-12-02T03:50:57.287Z,4.03
2018-12-02T03:51:57.275Z,4.04
2018-12-02T03:52:57.265Z,3.96
2018-12-02T03:53:57.248Z,4.06
2018-12-02T03:54:57.241Z,3.98
2018-12-02T03:55:57.233Z,4.08
2018-12-02T03:56:57.224Z,4.04
2018-12-02T03:57:57.207Z,4.07
2018-12-02T03:58:57.194Z,4.12
2018-12-02T03:59:57.187Z,4.14
2018-12-02T04:00:57.170Z,4.06
2018-12-02T04:01:57.161Z,4.10
2018-12-02T04:02:57.152Z,4.10
2018-12-02T04:03:57.144Z,4.19
2018-12-02T04:04:57.127Z,4.08
2018-12-02T04:05:57.121Z,4.14
2018-12-02T04:06:57.109Z,4.18
2018-12-02T04:07:57.097Z,4.08
2018-12-02T04:08:57.092Z,4.19
2018-12-02T04:09:57.076Z,4.19
2018-12-02T04:10:57.066Z,4.22
2018-12-02T04:11:57.059Z,4.22
2018-12-02T04:12:57.053Z,4.18
2018-12-02T04:13:57.060Z,4.22
2018-12-02T04:14:57.027Z,4.22
2018-12-02T04:15:57.018Z,4.21
2018-12-02T04:16:57.007Z,4.21
2018-12-02T04:17:56.995Z,4.22
2018-12-02T04:18:56.979Z,4.21
2018-12-02T04:19:56.971Z,4.25
2018-12-02T04:20:56.959Z,4.25
2018-12-02T04:21:56.949Z,4.22
2018-12-02T04:22:56.943Z,4.37
2018-12-02T04:23:56.924Z,4.37
2018-12-02T04:24:56.916Z,4.28
2018-12-02T04:25:56.899Z,4.25
2018-12-02T04:26:56.889Z,4.37
2018-12-02T04:27:56.880Z,4.37
2018-12-02T04:28:56.871Z,4.42
2018-12-02T04:29:56.864Z,4.34
2018-12-02T04:30:56.855Z,4.36
2018-12-02T04:31:56.842Z,4.42
2018-12-02T04:32:56.826Z,4.39
2018-12-02T04:34:16.677Z,4.39
2018-12-02T04:35:38.879Z,4.34
2018-12-02T04:36:38.855Z,4.40
2018-12-02T04:37:38.850Z,4.44
2018-12-02T04:38:38.837Z,4.46
2018-12-02T04:39:38.825Z,4.40
2018-12-02T04:40:38.812Z,4.47
2018-12-02T04:42:00.418Z,4.46
2018-12-02T04:43:20.843Z,4.50
2018-12-02T04:44:40.482Z,4.51
2018-12-02T04:46:02.871Z,4.51
2018-12-02T04:47:02.866Z,4.52
2018-12-02T04:48:02.852Z,4.59
2018-12-02T04:49:02.842Z,4.50
2018-12-02T04:50:02.841Z,4.50
2018-12-02T04:51:02.828Z,4.51
2018-12-02T04:52:02.804Z,4.44
2018-12-02T04:53:02.792Z,4.50
2018-12-02T04:54:02.781Z,4.55
2018-12-02T04:55:02.781Z,4.51
2018-12-02T04:56:02.769Z,4.43
2018-12-02T04:57:02.753Z,4.54
2018-12-02T04:58:02.738Z,4.46
2018-12-02T04:59:02.728Z,4.44
2018-12-02T05:00:02.736Z,4.54
2018-12-02T05:01:02.705Z,4.47
2018-12-02T05:02:02.705Z,4.51
2018-12-02T05:03:02.683Z,4.52
2018-12-02T05:04:02.671Z,4.51
2018-12-02T05:05:02.666Z,4.55
2018-12-02T05:06:02.654Z,4.54
2018-12-02T05:07:02.650Z,4.51
2018-12-02T05:08:02.634Z,4.51
2018-12-02T05:09:02.621Z,4.44
2018-12-02T05:10:02.608Z,4.51
2018-12-02T05:11:02.600Z,4.51
2018-12-02T05:12:02.587Z,4.47
2018-12-02T05:13:02.585Z,4.50
2018-12-02T05:14:02.563Z,4.42
2018-12-02T05:15:02.551Z,4.43
2018-12-02T05:16:02.541Z,4.42
2018-12-02T05:17:02.526Z,4.47
2018-12-02T05:18:02.525Z,4.47
2018-12-02T05:19:02.506Z,4.51
2018-12-02T05:20:02.492Z,4.55
2018-12-02T05:21:02.486Z,4.51
2018-12-02T05:22:02.470Z,4.37
2018-12-02T05:23:02.467Z,4.46
2018-12-02T05:24:02.455Z,4.51
2018-12-02T05:25:02.441Z,4.51
2018-12-02T05:26:02.429Z,4.50
2018-12-02T05:27:02.427Z,4.44
2018-12-02T05:28:02.405Z,4.51
2018-12-02T05:29:02.404Z,4.51
2018-12-02T05:30:02.382Z,4.51
2018-12-02T05:31:02.369Z,4.50
2018-12-02T05:32:02.365Z,4.57
2018-12-02T05:33:02.353Z,4.43
2018-12-02T05:34:02.338Z,4.58
2018-12-02T05:35:02.340Z,4.58
2018-12-02T05:36:02.314Z,4.58
2018-12-02T05:37:02.307Z,4.55
2018-12-02T05:38:02.307Z,4.51
2018-12-02T05:39:02.285Z,4.50
2018-12-02T05:40:02.272Z,4.46
2018-12-02T05:41:02.259Z,4.47
2018-12-02T05:42:02.248Z,4.55
2018-12-02T05:43:21.891Z,4.51
2018-12-02T05:44:02.229Z,4.62
2018-12-02T05:45:02.214Z,4.54
2018-12-02T05:46:02.214Z,4.54
2018-12-02T05:47:02.191Z,4.64
2018-12-02T05:48:02.179Z,4.52
2018-12-02T05:49:02.168Z,4.52
2018-12-02T05:50:02.168Z,4.61
2018-12-02T05:51:02.154Z,4.59
2018-12-02T05:52:02.150Z,4.61
2018-12-02T05:53:02.124Z,4.52
2018-12-02T05:54:02.116Z,4.61
2018-12-02T05:55:02.107Z,4.62
2018-12-02T05:56:02.092Z,4.57
2018-12-02T05:57:02.091Z,4.61
2018-12-02T05:58:02.068Z,4.73
2018-12-02T05:59:02.065Z,4.70
2018-12-02T06:00:02.050Z,4.64
2018-12-02T06:01:02.065Z,4.65
2018-12-02T06:02:02.035Z,4.69
2018-12-02T06:03:02.035Z,4.69
2018-12-02T06:04:02.004Z,4.67
2018-12-02T06:05:01.998Z,4.65
2018-12-02T06:06:01.983Z,4.67
2018-12-02T06:07:01.972Z,4.72
2018-12-02T06:08:01.960Z,4.69
2018-12-02T06:09:01.953Z,4.65
2018-12-02T06:10:01.943Z,4.67
2018-12-02T06:11:01.924Z,4.64
2018-12-02T06:12:01.926Z,4.67
2018-12-02T06:13:01.904Z,4.67
2018-12-02T06:14:01.901Z,4.67
2018-12-02T06:15:01.885Z,4.64
2018-12-02T06:16:01.875Z,4.65
2018-12-02T06:17:01.866Z,4.67
2018-12-02T06:18:01.857Z,4.70
2018-12-02T06:19:01.839Z,4.75
2018-12-02T06:20:04.647Z,4.69
2018-12-02T06:21:01.831Z,4.72
2018-12-02T06:22:01.819Z,4.70
2018-12-02T06:23:01.801Z,4.79
2018-12-02T06:24:01.792Z,4.72
2018-12-02T06:25:01.779Z,4.70
2018-12-02T06:26:01.774Z,4.80
2018-12-02T06:27:01.759Z,4.84
2018-12-02T06:28:01.743Z,4.84
2018-12-02T06:29:01.730Z,4.84
2018-12-02T06:30:01.738Z,4.80
2018-12-02T06:31:01.715Z,4.73
2018-12-02T06:32:01.697Z,4.76
2018-12-02T06:33:01.686Z,4.80
2018-12-02T06:34:01.676Z,4.75
2018-12-02T06:35:01.664Z,4.72
2018-12-02T06:36:01.653Z,4.76
2018-12-02T06:37:01.644Z,4.92
2018-12-02T06:38:01.629Z,4.89
2018-12-02T06:39:01.615Z,4.88
2018-12-02T06:40:01.611Z,4.89
2018-12-02T06:41:01.591Z,4.83
2018-12-02T06:42:01.591Z,4.95
2018-12-02T06:43:01.570Z,4.96
2018-12-02T06:44:01.559Z,5.01
2018-12-02T06:45:01.551Z,5.10
2018-12-02T06:46:01.536Z,5.10
2018-12-02T06:47:01.540Z,5.10
2018-12-02T06:48:01.521Z,5.07
2018-12-02T06:49:01.511Z,5.10
2018-12-02T06:50:01.510Z,4.98
2018-12-02T06:51:01.490Z,5.01
2018-12-02T06:52:01.482Z,4.96
2018-12-02T06:53:01.471Z,4.95
2018-12-02T06:54:01.466Z,5.02
2018-12-02T06:55:01.442Z,4.99
2018-12-02T06:56:01.425Z,5.05
2018-12-02T06:57:01.420Z,4.96
2018-12-02T06:58:01.412Z,5.02
2018-12-02T06:59:01.404Z,5.02
2018-12-02T07:00:01.385Z,4.96
2018-12-02T07:01:01.374Z,4.95
2018-12-02T07:02:01.363Z,4.91
2018-12-02T07:03:01.356Z,4.99
2018-12-02T07:04:01.341Z,4.86
2018-12-02T07:05:01.375Z,4.94
2018-12-02T07:06:01.318Z,4.94
2018-12-02T07:07:01.319Z,4.98
2018-12-02T07:08:01.292Z,4.99
2018-12-02T07:09:01.290Z,4.99
2018-12-02T07:10:01.285Z,4.96
2018-12-02T07:11:01.271Z,4.89
2018-12-02T07:12:01.257Z,4.98
2018-12-02T07:13:01.246Z,5.01
2018-12-02T07:14:01.235Z,4.99
2018-12-02T07:15:01.226Z,4.99
2018-12-02T07:16:01.214Z,5.05
2018-12-02T07:17:01.206Z,5.04
2018-12-02T07:18:01.201Z,4.94
2018-12-02T07:19:01.181Z,5.04
2018-12-02T07:20:01.170Z,5.05
2018-12-02T07:21:01.156Z,5.01
2018-12-02T07:22:01.140Z,5.02
2018-12-02T07:23:01.136Z,5.09
2018-12-02T07:24:01.117Z,5.12
2018-12-02T07:25:01.109Z,5.07
2018-12-02T07:26:01.093Z,5.12
2018-12-02T07:27:01.098Z,5.14
2018-12-02T07:28:01.085Z,5.10
2018-12-02T07:29:01.067Z,5.01
2018-12-02T07:30:01.066Z,5.07
2018-12-02T07:31:01.043Z,5.02
2018-12-02T07:32:01.031Z,4.92
2018-12-02T07:33:01.050Z,4.96
2018-12-02T07:34:01.020Z,5.04
2018-12-02T07:35:01.005Z,5.01
2018-12-02T07:36:00.996Z,5.10
2018-12-02T07:37:00.982Z,5.12
2018-12-02T07:38:00.968Z,5.01
2018-12-02T07:39:00.973Z,5.13
2018-12-02T07:40:00.943Z,4.99
2018-12-02T07:41:00.930Z,5.12
2018-12-02T07:42:00.917Z,5.04
2018-12-02T07:43:00.907Z,5.01
2018-12-02T07:44:00.894Z,5.02
2018-12-02T07:45:00.879Z,5.10
2018-12-02T07:46:00.873Z,5.09
2018-12-02T07:47:00.858Z,5.02
2018-12-02T07:48:00.849Z,5.02
2018-12-02T07:49:00.844Z,5.12
2018-12-02T07:50:00.838Z,5.07
2018-12-02T07:51:00.828Z,5.10
2018-12-02T07:52:00.804Z,5.05
2018-12-02T07:53:00.792Z,5.13
2018-12-02T07:54:00.784Z,5.05
2018-12-02T07:55:00.773Z,5.05
2018-12-02T07:56:00.757Z,5.01
2018-12-02T07:57:20.403Z,5.16
2018-12-02T07:58:42.802Z,5.17
2018-12-02T08:00:01.459Z,5.22
2018-12-02T08:02:10.939Z,5.19
2018-12-02T08:03:30.573Z,5.19
2018-12-02T08:04:10.911Z,5.14
2018-12-02T08:05:31.558Z,5.13
2018-12-02T08:06:52.952Z,5.09
2018-12-02T08:07:52.947Z,5.19
2018-12-02T08:08:52.988Z,5.13
2018-12-02T08:09:52.924Z,5.09
2018-12-02T08:10:52.908Z,5.13
2018-12-02T08:12:11.543Z,5.12
2018-12-02T08:13:12.538Z,5.17
2018-12-02T08:14:35.958Z,5.17
2018-12-02T08:15:35.940Z,5.14
2018-12-02T08:16:35.936Z,5.13
2018-12-02T08:17:35.919Z,5.19
2018-12-02T08:18:35.897Z,5.14
2018-12-02T08:19:35.893Z,5.20
2018-12-02T08:20:55.530Z,5.16
2018-12-02T08:22:17.913Z,5.17
2018-12-02T08:23:17.906Z,5.23
2018-12-02T08:24:17.892Z,5.23
2018-12-02T08:25:17.934Z,5.25
2018-12-02T08:26:17.868Z,5.25
2018-12-02T08:27:17.862Z,5.25
2018-12-02T08:28:17.853Z,5.28
2018-12-02T08:29:17.835Z,5.31
2018-12-02T08:30:17.826Z,5.30
2018-12-02T08:31:17.822Z,5.34
2018-12-02T08:32:17.806Z,5.31
2018-12-02T08:33:17.795Z,5.32
2018-12-02T08:34:36.425Z,5.41
2018-12-02T08:35:59.829Z,5.37
2018-12-02T08:36:59.817Z,5.41
2018-12-02T08:37:59.806Z,5.37
2018-12-02T08:38:59.795Z,5.40
2018-12-02T08:39:59.789Z,5.38
2018-12-02T08:40:59.774Z,5.32
2018-12-02T08:41:59.759Z,5.43
2018-12-02T08:42:59.745Z,5.38
2018-12-02T08:43:59.742Z,5.45
2018-12-02T08:44:59.728Z,5.45
2018-12-02T08:45:59.720Z,5.49
2018-12-02T08:46:59.710Z,5.43
2018-12-02T08:47:59.692Z,5.52
2018-12-02T08:48:59.685Z,5.53
2018-12-02T08:49:59.670Z,5.49
2018-12-02T08:50:59.661Z,5.55
2018-12-02T08:51:59.661Z,5.55
2018-12-02T08:52:59.641Z,5.56
2018-12-02T08:53:59.622Z,5.53
2018-12-02T08:54:59.616Z,5.50
2018-12-02T08:55:59.599Z,5.67
2018-12-02T08:56:59.588Z,5.60
2018-12-02T08:57:59.585Z,5.68
2018-12-02T08:58:59.577Z,5.57
2018-12-02T08:59:59.561Z,5.71
2018-12-02T09:00:59.544Z,5.73
2018-12-02T09:01:59.539Z,5.74
2018-12-02T09:02:59.522Z,5.67
2018-12-02T09:03:59.515Z,5.66
2018-12-02T09:04:59.501Z,5.67
2018-12-02T09:05:59.493Z,5.66
2018-12-02T09:06:59.480Z,5.68
2018-12-02T09:07:59.477Z,5.70
2018-12-02T09:08:59.462Z,5.68
2018-12-02T09:09:59.717Z,5.66
2018-12-02T09:10:59.435Z,5.74
2018-12-02T09:11:59.428Z,5.75
2018-12-02T09:12:59.417Z,5.86
2018-12-02T09:13:59.408Z,5.83
2018-12-02T09:14:59.420Z,6.00
2018-12-02T09:15:59.385Z,5.96
2018-12-02T09:16:59.367Z,5.91
2018-12-02T09:17:59.360Z,5.98
2018-12-02T09:18:59.357Z,6.06
2018-12-02T09:19:59.338Z,6.01
2018-12-02T09:20:59.341Z,5.96
2018-12-02T09:21:59.316Z,6.01
2018-12-02T09:22:59.298Z,6.04
2018-12-02T09:23:59.290Z,6.03
2018-12-02T09:24:59.289Z,6.03
2018-12-02T09:25:59.271Z,5.98
2018-12-02T09:26:59.281Z,6.13
2018-12-02T09:27:59.248Z,6.06
2018-12-02T09:28:59.240Z,6.16
2018-12-02T09:29:59.222Z,6.04
2018-12-02T09:30:59.213Z,6.09
2018-12-02T09:31:59.219Z,5.98
2018-12-02T09:32:59.242Z,6.07
2018-12-02T09:33:59.182Z,6.10
2018-12-02T09:34:59.179Z,6.11
2018-12-02T09:35:59.159Z,6.09
2018-12-02T09:36:59.158Z,6.10
2018-12-02T09:37:59.145Z,6.16
2018-12-02T09:38:59.132Z,6.10
2018-12-02T09:39:59.121Z,6.14
2018-12-02T09:40:59.104Z,6.16
2018-12-02T09:41:59.117Z,6.18
2018-12-02T09:42:59.091Z,6.21
2018-12-02T09:43:59.071Z,6.11
2018-12-02T09:44:59.069Z,6.18
2018-12-02T09:45:59.068Z,6.11
2018-12-02T09:46:59.054Z,6.16
2018-12-02T09:48:18.674Z,6.09
2018-12-02T09:49:41.065Z,6.21
2018-12-02T09:50:41.056Z,6.14
2018-12-02T09:51:41.037Z,6.22
2018-12-02T09:52:41.035Z,6.21
2018-12-02T09:53:41.009Z,6.22
2018-12-02T09:54:41.000Z,6.18
2018-12-02T09:55:40.992Z,6.07
2018-12-02T09:56:40.983Z,6.21
2018-12-02T09:57:40.969Z,6.25
2018-12-02T09:58:40.959Z,6.22
2018-12-02T09:59:40.949Z,6.25
2018-12-02T10:00:40.938Z,6.21
2018-12-02T10:01:40.929Z,6.22
2018-12-02T10:02:40.915Z,6.22
2018-12-02T10:03:40.906Z,6.21
2018-12-02T10:04:40.888Z,6.22
2018-12-02T10:05:40.880Z,6.22
2018-12-02T10:06:40.867Z,6.26
2018-12-02T10:07:40.856Z,6.21
2018-12-02T10:08:40.850Z,6.29
2018-12-02T10:09:40.846Z,6.19
2018-12-02T10:10:40.838Z,6.30
2018-12-02T10:11:40.823Z,6.30
2018-12-02T10:12:40.812Z,6.26
2018-12-02T10:13:40.807Z,6.26
2018-12-02T10:14:40.789Z,6.38
2018-12-02T10:15:40.779Z,6.41
2018-12-02T10:16:40.768Z,6.33
2018-12-02T10:17:40.793Z,6.30
2018-12-02T10:18:40.750Z,6.32
2018-12-02T10:19:40.731Z,6.40
2018-12-02T10:20:40.723Z,6.40
2018-12-02T10:21:40.716Z,6.41
2018-12-02T10:22:40.701Z,6.40
2018-12-02T10:23:40.680Z,6.43
2018-12-02T10:24:40.667Z,6.38
2018-12-02T10:25:40.662Z,6.40
2018-12-02T10:26:40.651Z,6.43
2018-12-02T10:27:40.641Z,6.43
2018-12-02T10:28:40.624Z,6.44
2018-12-02T10:30:01.260Z,6.46
2018-12-02T10:31:11.576Z,6.44
2018-12-02T10:32:12.429Z,6.59
2018-12-02T10:33:11.567Z,6.53
2018-12-02T10:34:31.199Z,6.58
2018-12-02T10:36:40.549Z,6.69
2018-12-02T10:38:01.133Z,6.77
2018-12-02T10:39:22.585Z,6.89
2018-12-02T10:41:50.155Z,6.87
2018-12-02T10:42:50.139Z,6.98
2018-12-02T10:43:50.156Z,6.87
2018-12-02T10:44:50.123Z,6.91
2018-12-02T10:45:50.103Z,6.90
2018-12-02T10:46:50.097Z,6.98
2018-12-02T10:47:50.094Z,6.94
2018-12-02T10:48:50.073Z,7.01
2018-12-02T10:49:50.059Z,6.98
2018-12-02T10:50:50.053Z,6.98
2018-12-02T10:51:50.045Z,6.99
2018-12-02T10:52:50.028Z,7.02
2018-12-02T10:53:50.017Z,7.02
2018-12-02T10:54:50.001Z,7.12
2018-12-02T10:55:49.996Z,7.04
2018-12-02T10:56:49.996Z,7.07
2018-12-02T10:57:49.987Z,7.12
2018-12-02T10:58:49.967Z,7.05
2018-12-02T10:59:49.958Z,7.07
2018-12-02T11:00:49.943Z,7.07
2018-12-02T11:01:49.931Z,7.02
2018-12-02T11:02:49.923Z,7.05
2018-12-02T11:03:49.913Z,7.05
2018-12-02T11:04:49.901Z,7.12
2018-12-02T11:05:49.897Z,7.04
2018-12-02T11:06:49.881Z,7.08
2018-12-02T11:07:49.866Z,6.98
2018-12-02T11:08:49.858Z,7.05
2018-12-02T11:09:49.846Z,7.12
2018-12-02T11:10:49.836Z,7.08
2018-12-02T11:11:49.824Z,7.09
2018-12-02T11:12:49.808Z,7.19
2018-12-02T11:13:49.803Z,7.16
2018-12-02T11:14:49.782Z,7.19
2018-12-02T11:15:49.782Z,7.13
2018-12-02T11:16:49.763Z,7.26
2018-12-02T11:17:49.763Z,7.22
2018-12-02T11:18:49.742Z,7.29
2018-12-02T11:19:49.749Z,7.24
2018-12-02T11:20:49.724Z,7.27
2018-12-02T11:21:49.708Z,7.32
2018-12-02T11:22:49.699Z,7.31
2018-12-02T11:23:49.689Z,7.29
2018-12-02T11:24:49.676Z,7.32
2018-12-02T11:25:49.673Z,7.42
2018-12-02T11:26:49.649Z,7.44
2018-12-02T11:27:49.652Z,7.47
2018-12-02T11:28:49.634Z,7.53
2018-12-02T11:29:49.617Z,7.44
2018-12-02T11:30:49.616Z,7.42
2018-12-02T11:31:49.608Z,7.42
2018-12-02T11:32:49.588Z,7.40
2018-12-02T11:33:49.573Z,7.55
2018-12-02T11:34:49.572Z,7.56
2018-12-02T11:35:49.561Z,7.55
2018-12-02T11:36:49.554Z,7.44
2018-12-02T11:37:49.548Z,7.38
2018-12-02T11:38:49.526Z,7.40
2018-12-02T11:39:49.513Z,7.49
2018-12-02T11:40:49.506Z,7.45
2018-12-02T11:41:49.492Z,7.53
2018-12-02T11:42:49.490Z,7.42
2018-12-02T11:43:49.468Z,7.55
2018-12-02T11:44:49.459Z,7.44
2018-12-02T11:45:49.443Z,7.42
2018-12-02T11:46:49.445Z,7.41
2018-12-02T11:47:49.421Z,7.50
2018-12-02T11:48:49.419Z,7.45
2018-12-02T11:49:49.399Z,7.47
2018-12-02T11:50:50.639Z,7.55
2018-12-02T11:51:49.380Z,7.56
2018-12-02T11:52:49.377Z,7.53
2018-12-02T11:53:49.363Z,7.45
2018-12-02T11:54:49.346Z,7.56
2018-12-02T11:55:49.341Z,7.41
2018-12-02T11:56:49.328Z,7.50
2018-12-02T11:57:49.318Z,7.45
2018-12-02T11:58:49.310Z,7.47
2018-12-02T11:59:49.301Z,7.42
2018-12-02T12:00:49.280Z,7.52
2018-12-02T12:01:49.272Z,7.45
2018-12-02T12:02:49.256Z,7.49
2018-12-02T12:03:49.243Z,7.45
2018-12-02T12:04:49.239Z,7.53
2018-12-02T12:05:49.223Z,7.45
2018-12-02T12:06:49.220Z,7.47
2018-12-02T12:07:49.201Z,7.53
2018-12-02T12:08:49.194Z,7.42
2018-12-02T12:09:49.188Z,7.52
2018-12-02T12:10:49.187Z,7.49
2018-12-02T12:11:49.162Z,7.44
2018-12-02T12:12:49.151Z,7.42
2018-12-02T12:13:49.130Z,7.55
2018-12-02T12:14:49.125Z,7.44
2018-12-02T12:15:49.113Z,7.41
2018-12-02T12:16:49.103Z,7.56
2018-12-02T12:17:49.095Z,7.44
2018-12-02T12:18:49.082Z,7.44
2018-12-02T12:19:49.065Z,7.47
2018-12-02T12:20:49.055Z,7.42
2018-12-02T12:21:49.058Z,7.45
2018-12-02T12:22:49.034Z,7.44
2018-12-02T12:23:49.023Z,7.45
2018-12-02T12:24:49.012Z,7.35
2018-12-02T12:25:49.004Z,7.42
2018-12-02T12:26:48.991Z,7.34
2018-12-02T12:27:49.039Z,7.38
2018-12-02T12:28:48.971Z,7.40
2018-12-02T12:29:48.964Z,7.42
2018-12-02T12:30:48.945Z,7.42
2018-12-02T12:31:48.936Z,7.37
2018-12-02T12:32:48.922Z,7.35
2018-12-02T12:33:48.910Z,7.35
2018-12-02T12:34:48.904Z,7.34
2018-12-02T12:35:48.892Z,7.42
2018-12-02T12:36:48.881Z,7.44
2018-12-02T12:37:48.866Z,7.40
2018-12-02T12:38:48.858Z,7.37
2018-12-02T12:39:48.857Z,7.24
2018-12-02T12:40:48.835Z,7.44
2018-12-02T12:41:48.828Z,7.40
2018-12-02T12:42:48.821Z,7.32
2018-12-02T12:43:48.806Z,7.31
2018-12-02T12:44:48.798Z,7.29
2018-12-02T12:45:48.788Z,7.26
2018-12-02T12:46:48.772Z,7.31
2018-12-02T12:47:48.761Z,7.29
2018-12-02T12:48:48.743Z,7.29
2018-12-02T12:49:48.742Z,7.24
2018-12-02T12:50:48.736Z,7.26
2018-12-02T12:51:48.712Z,7.24
2018-12-02T12:52:48.710Z,7.26
2018-12-02T12:53:48.702Z,7.23
2018-12-02T12:54:48.682Z,7.26
2018-12-02T12:55:50.953Z,7.26
2018-12-02T12:56:48.669Z,7.20
2018-12-02T12:57:48.649Z,7.19
2018-12-02T13:00:16.234Z,7.19
2018-12-02T13:01:16.232Z,7.17
2018-12-02T13:02:16.211Z,7.16
2018-12-02T13:03:16.212Z,7.13
2018-12-02T13:04:16.191Z,7.17
2018-12-02T13:05:35.856Z,7.17
2018-12-02T13:06:58.224Z,7.09
2018-12-02T13:07:58.198Z,7.08
2018-12-02T13:08:58.188Z,7.19
2018-12-02T13:09:58.178Z,7.16
2018-12-02T13:10:58.184Z,7.15
2018-12-02T13:11:58.158Z,7.08
2018-12-02T13:12:58.147Z,7.12
2018-12-02T13:13:58.131Z,7.09
2018-12-02T13:14:58.125Z,7.12
2018-12-02T13:15:58.119Z,7.07
2018-12-02T13:16:58.105Z,7.07
2018-12-02T13:17:58.093Z,7.12
2018-12-02T13:18:58.082Z,7.01
2018-12-02T13:19:58.075Z,7.15
2018-12-02T13:20:58.078Z,6.99
2018-12-02T13:21:58.046Z,7.07
2018-12-02T13:22:58.033Z,7.07
2018-12-02T13:23:58.029Z,7.02
2018-12-02T13:24:58.019Z,6.94
2018-12-02T13:25:58.003Z,6.98
2018-12-02T13:26:57.989Z,6.91
2018-12-02T13:27:57.995Z,6.95
2018-12-02T13:28:57.974Z,6.95
2018-12-02T13:29:57.969Z,6.95
2018-12-02T13:30:57.946Z,6.90
2018-12-02T13:31:57.939Z,6.89
2018-12-02T13:32:57.936Z,6.97
2018-12-02T13:33:57.919Z,6.86
2018-12-02T13:34:57.908Z,6.84
2018-12-02T13:35:57.894Z,6.89
2018-12-02T13:36:57.881Z,6.90
2018-12-02T13:37:57.903Z,6.79
2018-12-02T13:38:57.864Z,6.84
2018-12-02T13:39:57.854Z,6.81
2018-12-02T13:40:57.842Z,6.83
2018-12-02T13:41:57.821Z,6.76
2018-12-02T13:42:57.815Z,6.76
2018-12-02T13:43:57.801Z,6.76